Sulphur Springs, Ohio
Current Conditions -  °F | °C
As of 3:52 PM on Saturday 22 Nov 2014 (Local Time) from KMFD Reporting Station
Overcast Overcast  
Wind Chill: 40°   Ceiling: 8500
Heat Index: 47°   Visibility: 10mi
Dew Point: 37°   Wind: 20mph
Humidity: 68%   Direction: 200°SSW
Pressure: 30.07"   Gusts: 29mph
Location:  40.87°N, 82.88°W
Report Text: KMFD 222052Z 20017G25KT 10SM FEW070 OVC085 08/03 A3007 RMK AO2 PK WND 21031/2007 RAB22E34 SLP191 P0000 60000 T00830028 56014
Loading
Personal Weather Stations






























Interactive Weather Map New forecast layout! Learn more

10-Day Weather Forecast

Advertisements
Track Severe Weather on mobile